Time;durP1;ratioP1;P1;durP2;ratioP2;P2;SDS_P1;SDS_P2;PMS_P1;PMS_P2;Temp;Humidity;BMP_temperature;BMP_pressure;BME280_temperature;BME280_humidity;BME280_pressure;Samples;Min_cycle;Max_cycle;Signal;HPM_P1;HPM_P2
2022/09/08 00:01:40;;;;;;;12.43;11.13;;;;;;;17.40;76.50;100470.38;7392420;19;20039;-70
2022/09/08 00:04:08;;;;;;;13.18;11.75;;;;;;;17.38;76.31;100471.41;7397552;19;20077;-70
2022/09/08 00:06:37;;;;;;;14.60;12.40;;;;;;;17.35;76.09;100472.44;7401057;19;20014;-70
2022/09/08 00:09:15;;;;;;;13.32;11.43;;;;;;;17.33;76.45;100482.25;7400959;19;20023;-71
2022/09/08 00:11:56;;;;;;;12.50;11.20;;;;;;;17.32;76.08;100485.84;7397786;19;20584;-70
2022/09/08 00:14:25;;;;;;;14.13;12.75;;;;;;;17.30;76.11;100490.38;7398644;19;20035;-70
2022/09/08 00:16:54;;;;;;;14.20;12.07;;;;;;;17.28;76.17;100484.31;7400213;19;20510;-70
2022/09/08 00:19:22;;;;;;;14.55;12.43;;;;;;;17.28;76.42;100478.16;7397994;19;20035;-70
2022/09/08 00:21:51;;;;;;;17.15;12.60;;;;;;;17.24;76.55;100475.66;7397901;19;20019;-70
2022/09/08 00:24:22;;;;;;;13.15;11.85;;;;;;;17.22;76.28;100472.22;7397903;19;20077;-70
2022/09/08 00:26:50;;;;;;;12.95;11.68;;;;;;;17.21;76.43;100465.22;7400758;19;20074;-70
2022/09/08 00:29:19;;;;;;;14.27;11.40;;;;;;;17.19;76.58;100469.75;7400300;19;20011;-70
2022/09/08 00:31:48;;;;;;;13.85;12.10;;;;;;;17.18;76.51;100467.19;7398340;19;20042;-70
2022/09/08 00:34:23;;;;;;;13.05;11.60;;;;;;;17.17;76.32;100466.31;7399761;19;20094;-70
2022/09/08 00:36:56;;;;;;;12.27;10.98;;;;;;;17.16;76.54;100463.75;7400005;19;20026;-70
2022/09/08 00:39:27;;;;;;;12.82;11.52;;;;;;;17.14;76.60;100471.78;7397917;19;20489;-69
2022/09/08 00:41:57;;;;;;;13.00;11.35;;;;;;;17.13;76.65;100475.38;7397633;19;20036;-70
2022/09/08 00:44:41;;;;;;;13.85;12.38;;;;;;;17.13;76.54;100471.88;7399949;19;20401;-69
2022/09/08 00:47:18;;;;;;;15.85;11.43;;;;;;;17.10;76.32;100467.59;7399491;19;20496;-70
2022/09/08 00:49:50;;;;;;;11.90;10.80;;;;;;;17.08;76.48;100459.72;7399497;19;20082;-70
2022/09/08 00:52:19;;;;;;;13.65;11.02;;;;;;;17.06;76.38;100451.00;7397546;19;20098;-70
2022/09/08 00:54:52;;;;;;;13.52;11.25;;;;;;;17.04;76.27;100455.50;7399036;19;20521;-70
2022/09/08 00:57:20;;;;;;;13.88;12.40;;;;;;;17.02;76.67;100452.13;7397441;19;20019;-70
2022/09/08 00:59:50;;;;;;;14.43;12.95;;;;;;;17.00;76.51;100453.97;7396931;19;20420;-70
2022/09/08 01:02:25;;;;;;;13.73;12.38;;;;;;;16.96;76.82;100457.75;7396704;19;20486;-70
2022/09/08 01:04:57;;;;;;;14.48;11.65;;;;;;;16.93;76.81;100460.53;7399481;19;20078;-70
2022/09/08 01:13:09;;;;;;;15.07;12.43;;;;;;;16.84;76.65;100459.19;7400610;19;20018;-67
2022/09/08 01:15:39;;;;;;;16.23;14.32;;;;;;;16.80;77.04;100459.44;7397529;19;20014;-67
2022/09/08 01:18:07;;;;;;;18.08;13.57;;;;;;;16.74;77.25;100460.63;7396306;19;20019;-68
2022/09/08 01:20:47;;;;;;;16.02;14.32;;;;;;;16.70;77.18;100457.25;7396360;19;20077;-68
2022/09/08 01:23:48;;;;;;;15.88;13.93;;;;;;;16.66;77.32;100458.38;7398830;19;20090;-68
2022/09/08 01:26:36;;;;;;;17.08;15.32;;;;;;;16.61;77.03;100455.09;7396057;19;20081;-69
2022/09/08 01:29:08;;;;;;;16.90;15.10;;;;;;;16.56;77.14;100462.44;7397880;19;20018;-69
2022/09/08 01:31:43;;;;;;;17.60;15.02;;;;;;;16.52;77.33;100460.88;7397081;19;20032;-67
2022/09/08 01:34:12;;;;;;;16.60;14.60;;;;;;;16.50;77.61;100460.09;7395697;19;20070;-67
2022/09/08 01:36:40;;;;;;;17.42;15.15;;;;;;;16.47;77.43;100460.22;7397577;19;20018;-67
2022/09/08 01:39:09;;;;;;;15.82;14.15;;;;;;;16.41;77.69;100456.97;7396976;19;20031;-68
2022/09/08 01:41:37;;;;;;;16.20;14.50;;;;;;;16.38;77.72;100456.28;7396567;19;20095;-69
2022/09/08 01:44:08;;;;;;;15.95;13.05;;;;;;;16.31;77.81;100450.44;7397750;19;20078;-68
2022/09/08 01:46:36;;;;;;;14.48;12.98;;;;;;;16.26;78.23;100448.03;7397416;19;20082;-68
2022/09/08 01:49:05;;;;;;;15.25;13.18;;;;;;;16.23;78.17;100442.88;7397532;19;20074;-68
2022/09/08 01:51:35;;;;;;;14.70;13.20;;;;;;;16.21;78.24;100438.59;7396016;19;20035;-68
2022/09/08 01:54:04;;;;;;;18.30;13.45;;;;;;;16.19;78.54;100443.97;7397686;19;20070;-68
2022/09/08 01:56:32;;;;;;;15.10;13.60;;;;;;;16.19;78.21;100445.75;7395669;19;20404;-68
2022/09/08 01:59:01;;;;;;;14.65;12.98;;;;;;;16.17;78.33;100440.53;7396729;19;20086;-69
2022/09/08 02:01:32;;;;;;;14.63;11.82;;;;;;;16.17;78.43;100431.75;7395807;19;20549;-67
2022/09/08 02:04:00;;;;;;;14.50;12.77;;;;;;;16.16;78.52;100424.72;7395474;19;20082;-68
2022/09/08 02:06:29;;;;;;;14.95;12.55;;;;;;;16.14;78.52;100416.88;7395319;19;20364;-69
2022/09/08 02:08:58;;;;;;;14.35;12.93;;;;;;;16.10;78.63;100416.16;7396961;19;20042;-68
2022/09/08 02:11:26;;;;;;;14.38;12.90;;;;;;;16.08;78.52;100412.75;7395384;19;20024;-69
2022/09/08 02:13:55;;;;;;;14.60;11.77;;;;;;;16.08;78.64;100411.88;7396761;19;20423;-68
2022/09/08 02:16:23;;;;;;;13.85;12.45;;;;;;;16.06;78.60;100411.97;7396549;19;20082;-68
2022/09/08 02:18:55;;;;;;;15.63;13.75;;;;;;;16.06;78.58;100403.16;7395990;19;20036;-68
2022/09/08 02:21:24;;;;;;;13.52;12.23;;;;;;;16.06;78.67;100400.50;7395205;19;20022;-68
2022/09/08 02:23:55;;;;;;;13.18;11.88;;;;;;;16.02;78.64;100391.88;7394135;19;20392;-68
2022/09/08 02:26:26;;;;;;;13.52;12.13;;;;;;;16.01;78.57;100394.59;7395216;19;20035;-68
2022/09/08 02:28:55;;;;;;;13.77;12.30;;;;;;;15.99;78.66;100385.91;7397394;19;20033;-68
2022/09/08 02:31:25;;;;;;;13.77;12.05;;;;;;;15.96;78.68;100385.13;7395433;19;20078;-68
2022/09/08 02:33:57;;;;;;;13.18;11.65;;;;;;;15.94;78.54;100384.31;7396375;19;20022;-68
2022/09/08 02:36:25;;;;;;;13.43;12.02;;;;;;;15.93;78.61;100385.25;7394687;19;20022;-68
2022/09/08 02:38:55;;;;;;;14.25;11.85;;;;;;;15.91;78.61;100386.25;7394695;19;20074;-68
2022/09/08 02:41:25;;;;;;;14.20;11.73;;;;;;;15.91;78.30;100388.91;7394955;19;20086;-68
2022/09/08 02:43:53;;;;;;;12.52;11.25;;;;;;;15.91;78.56;100391.56;7395415;19;20481;-68
2022/09/08 02:46:22;;;;;;;13.35;11.98;;;;;;;15.89;78.33;100390.78;7393741;19;20082;-67
2022/09/08 02:48:51;;;;;;;15.18;11.35;;;;;;;15.88;78.49;100386.44;7395620;19;20022;-68
2022/09/08 02:51:22;;;;;;;12.95;11.57;;;;;;;15.86;78.04;100391.81;7393888;19;20022;-68
2022/09/08 02:53:50;;;;;;;13.75;10.73;;;;;;;15.84;78.16;100387.53;7395812;19;20018;-68
2022/09/08 02:56:19;;;;;;;13.20;10.73;;;;;;;15.82;78.23;100384.09;7395239;19;20082;-67
2022/09/08 02:58:47;;;;;;;11.88;10.65;;;;;;;15.82;77.98;100386.72;7393088;19;20434;-67
2022/09/08 03:01:16;;;;;;;12.15;10.77;;;;;;;15.77;78.07;100382.50;7394421;19;20090;-68
2022/09/08 03:03:44;;;;;;;13.35;10.85;;;;;;;15.76;78.09;100386.06;7395209;19;20090;-67
2022/09/08 03:06:13;;;;;;;13.57;10.25;;;;;;;15.72;77.80;100376.56;7393167;19;20074;-68
2022/09/08 03:08:44;;;;;;;11.07;9.95;;;;;;;15.72;78.13;100384.50;7394711;19;20380;-67
2022/09/08 03:11:13;;;;;;;11.27;10.10;;;;;;;15.70;78.01;100381.06;7393402;19;20003;-68
2022/09/08 03:13:42;;;;;;;10.48;9.57;;;;;;;15.69;77.89;100383.81;7392781;19;20073;-68
2022/09/08 03:16:10;;;;;;;11.73;9.98;;;;;;;15.68;77.96;100382.09;7394699;19;20381;-68
2022/09/08 03:18:38;;;;;;;14.55;11.48;;;;;;;15.66;77.84;100368.06;7392620;19;20036;-68
2022/09/08 03:21:10;;;;;;;13.55;10.32;;;;;;;15.62;77.83;100370.03;7393670;19;20019;-69
2022/09/08 03:23:39;;;;;;;15.95;11.05;;;;;;;15.60;77.70;100369.25;7393150;19;20029;-69
2022/09/08 03:26:14;;;;;;;13.80;10.75;;;;;;;15.58;78.00;100368.44;7394663;19;20024;-69
2022/09/08 03:28:43;;;;;;;12.02;10.77;;;;;;;15.56;78.01;100360.59;7394157;19;20019;-69
2022/09/08 03:31:15;;;;;;;11.50;10.23;;;;;;;15.54;77.82;100364.25;7393562;19;20030;-68
2022/09/08 03:33:43;;;;;;;13.27;10.02;;;;;;;15.52;77.74;100366.09;7394335;19;20015;-69
2022/09/08 03:36:14;;;;;;;12.55;9.43;;;;;;;15.50;77.60;100367.97;7392128;19;20035;-69
2022/09/08 03:38:43;;;;;;;12.45;8.93;;;;;;;15.49;77.52;100356.53;7397019;19;20350;-69
2022/09/08 03:41:16;;;;;;;10.25;9.32;;;;;;;15.47;77.62;100369.81;7398338;19;20035;-67
2022/09/08 03:43:46;;;;;;;10.35;9.38;;;;;;;15.45;77.29;100353.16;7402199;19;20018;-68
2022/09/08 03:46:15;;;;;;;10.20;8.85;;;;;;;15.45;77.21;100369.03;7401708;19;20031;-68
2022/09/08 03:48:44;;;;;;;10.88;8.82;;;;;;;15.44;77.10;100367.34;7401488;19;20094;-68
2022/09/08 03:51:14;;;;;;;12.13;9.10;;;;;;;15.45;77.00;100369.03;7399908;19;20018;-68
2022/09/08 03:53:43;;;;;;;10.98;9.23;;;;;;;15.45;77.01;100352.31;7402261;19;20038;-68
2022/09/08 03:56:15;;;;;;;10.73;9.50;;;;;;;15.45;76.60;100360.25;7401641;19;20095;-68
2022/09/08 03:58:45;;;;;;;10.82;8.52;;;;;;;15.45;76.83;100349.69;7398660;19;20019;-67
2022/09/08 04:01:17;;;;;;;12.18;8.60;;;;;;;15.46;76.54;100354.88;7398562;19;20022;-68
2022/09/08 04:03:45;;;;;;;10.45;9.35;;;;;;;15.47;76.38;100343.38;7401519;19;20039;-68
2022/09/08 04:06:16;;;;;;;9.55;8.23;;;;;;;15.48;76.04;100336.34;7400812;19;20478;-70
2022/09/08 04:08:46;;;;;;;12.02;8.10;;;;;;;15.49;75.94;100340.66;7398042;19;20085;-69
2022/09/08 04:11:17;;;;;;;9.38;8.40;;;;;;;15.50;75.60;100336.25;7397562;19;20011;-69
2022/09/08 04:13:46;;;;;;;13.27;8.95;;;;;;;15.48;75.42;100333.69;7400355;19;20502;-68
2022/09/08 04:16:14;;;;;;;13.70;9.10;;;;;;;15.47;75.20;100327.53;7400597;19;20011;-69
2022/09/08 04:18:43;;;;;;;16.45;8.60;;;;;;;15.46;75.11;100336.38;7397758;19;20015;-69
2022/09/08 04:21:12;;;;;;;8.90;8.00;;;;;;;15.48;75.02;100331.03;7397379;19;20019;-69
2022/09/08 04:23:41;;;;;;;11.23;7.88;;;;;;;15.50;74.99;100328.31;7399811;19;20486;-69
2022/09/08 04:26:13;;;;;;;9.95;8.35;;;;;;;15.50;74.84;100337.09;7399657;19;20472;-69
2022/09/08 04:28:44;;;;;;;12.10;8.05;;;;;;;15.51;74.46;100332.69;7399145;19;20391;-69
2022/09/08 04:31:15;;;;;;;10.80;7.90;;;;;;;15.50;74.59;100329.16;7396649;19;20019;-69
2022/09/08 04:33:44;;;;;;;10.23;7.85;;;;;;;15.51;74.32;100337.97;7398493;19;20027;-69
2022/09/08 04:36:16;;;;;;;11.50;8.23;;;;;;;15.50;74.02;100336.25;7398883;19;20044;-69
2022/09/08 04:38:45;;;;;;;17.85;11.50;;;;;;;15.48;74.01;100328.41;7398697;19;20035;-69
2022/09/08 04:41:16;;;;;;;13.32;8.70;;;;;;;15.46;73.81;100328.44;7395673;19;20494;-69
2022/09/08 04:43:47;;;;;;;13.27;8.45;;;;;;;15.46;74.07;100327.59;7399363;19;20499;-69
2022/09/08 04:46:18;;;;;;;14.63;11.00;;;;;;;15.45;73.87;100323.25;7399234;19;20022;-70
2022/09/08 04:48:48;;;;;;;10.40;8.82;;;;;;;15.44;73.46;100326.81;7395016;19;20011;-69
2022/09/08 04:51:19;;;;;;;10.68;8.57;;;;;;;15.47;73.63;100332.81;7397537;19;20490;-69
2022/09/08 04:53:51;;;;;;;12.98;8.82;;;;;;;15.47;73.34;100332.81;7397090;19;20022;-70
2022/09/08 04:56:20;;;;;;;9.63;7.35;;;;;;;15.49;73.48;100335.38;7396231;19;20021;-70
2022/09/08 04:58:52;;;;;;;9.82;7.78;;;;;;;15.51;73.49;100343.25;7397913;19;20018;-69
2022/09/08 05:01:23;;;;;;;10.82;8.20;;;;;;;15.46;73.40;100331.09;7396041;19;20031;-68
2022/09/08 05:03:54;;;;;;;12.07;8.07;;;;;;;15.50;73.30;100337.09;7396339;19;20023;-69
2022/09/08 05:06:23;;;;;;;11.93;9.18;;;;;;;15.53;72.99;100341.38;7393357;19;20028;-69
2022/09/08 05:08:55;;;;;;;11.55;7.85;;;;;;;15.54;73.19;100340.44;7395835;19;20387;-69
2022/09/08 05:11:24;;;;;;;12.00;8.25;;;;;;;15.53;73.08;100334.31;7395016;19;20014;-68
2022/09/08 05:13:56;;;;;;;9.32;7.18;;;;;;;15.55;72.93;100332.44;7397420;19;20018;-68
2022/09/08 05:16:27;;;;;;;10.27;7.55;;;;;;;15.56;72.71;100328.03;7396161;19;20399;-70
2022/09/08 05:18:57;;;;;;;12.38;7.78;;;;;;;15.56;72.74;100330.66;7398962;19;20166;-69
2022/09/08 05:21:26;;;;;;;8.02;6.80;;;;;;;15.56;72.67;100331.50;7395482;19;20091;-68
2022/09/08 05:23:59;;;;;;;13.68;7.75;;;;;;;15.56;72.65;100328.03;7397520;19;20092;-68
2022/09/08 05:26:28;;;;;;;11.03;6.73;;;;;;;15.55;72.49;100323.66;7397791;19;20019;-68
2022/09/08 05:29:02;;;;;;;13.35;7.35;;;;;;;15.54;72.23;100328.06;7397861;19;20027;-68
2022/09/08 05:31:32;;;;;;;11.60;6.95;;;;;;;15.54;72.44;100324.59;7397189;19;20114;-70
2022/09/08 05:34:01;;;;;;;9.90;7.22;;;;;;;15.54;72.43;100328.06;7396886;19;20015;-69
2022/09/08 05:36:38;;;;;;;9.68;7.05;;;;;;;15.55;72.18;100321.88;7397245;19;20466;-69
2022/09/08 05:39:08;;;;;;;9.73;7.57;;;;;;;15.55;71.97;100326.31;7395646;19;20011;-69
2022/09/08 05:41:37;;;;;;;9.68;7.43;;;;;;;15.56;72.10;100326.22;7395393;19;20022;-69
2022/09/08 05:44:10;;;;;;;10.85;7.18;;;;;;;15.56;72.06;100326.22;7394856;19;20025;-69
2022/09/08 05:46:39;;;;;;;8.45;6.75;;;;;;;15.58;71.85;100323.50;7397023;19;20019;-69
2022/09/08 05:49:07;;;;;;;9.68;6.75;;;;;;;15.59;72.01;100315.47;7397491;19;20023;-69
2022/09/08 05:51:36;;;;;;;11.30;7.40;;;;;;;15.60;71.54;100317.19;7395667;19;20018;-69
2022/09/08 05:54:05;;;;;;;10.18;7.53;;;;;;;15.62;71.74;100319.78;7396587;19;20018;-70
2022/09/08 05:56:40;;;;;;;16.85;9.20;;;;;;;15.63;71.48;100327.66;7397283;19;20475;-69
2022/09/08 05:59:13;;;;;;;14.07;8.40;;;;;;;15.64;71.63;100325.84;7397217;19;20022;-69
2022/09/08 06:01:41;;;;;;;11.23;8.48;;;;;;;15.67;71.62;100327.47;7394978;19;20074;-69
2022/09/08 06:04:11;;;;;;;15.02;8.88;;;;;;;15.69;71.39;100321.19;7396744;19;20023;-68
2022/09/08 06:06:39;;;;;;;11.13;8.95;;;;;;;15.72;71.21;100318.41;7396387;19;20022;-69
2022/09/08 06:09:09;;;;;;;12.45;8.90;;;;;;;15.74;71.25;100320.97;7396302;19;20026;-68
2022/09/08 06:11:38;;;;;;;12.75;8.85;;;;;;;15.76;71.10;100324.41;7394563;19;20007;-69
2022/09/08 06:14:07;;;;;;;19.15;8.85;;;;;;;15.78;71.02;100319.88;7396438;19;20078;-69
2022/09/08 06:16:38;;;;;;;11.05;8.57;;;;;;;15.82;71.09;100328.53;7396066;19;20018;-69
2022/09/08 06:19:07;;;;;;;16.42;8.77;;;;;;;15.82;71.00;100321.44;7397160;19;20136;-68
2022/09/08 06:21:36;;;;;;;13.27;8.40;;;;;;;15.84;70.65;100327.53;7394488;19;20039;-68
2022/09/08 06:24:07;;;;;;;13.05;8.57;;;;;;;15.86;70.94;100338.03;7395132;19;20029;-68
2022/09/08 06:26:57;;;;;;;12.98;8.75;;;;;;;15.86;70.53;100349.47;7395392;19;20022;-70
2022/09/08 06:29:58;;;;;;;8.27;7.13;;;;;;;15.89;70.79;100372.28;7394533;19;20082;-68
2022/09/08 06:32:35;;;;;;;9.88;7.93;;;;;;;15.89;70.53;100380.22;7393483;19;20045;-69
2022/09/08 06:35:09;;;;;;;11.25;8.68;;;;;;;15.90;70.51;100366.91;7394774;19;20023;-68
2022/09/08 06:37:44;;;;;;;14.95;8.43;;;;;;;15.93;70.87;100363.25;7393474;19;20050;-68
2022/09/08 06:40:18;;;;;;;11.00;7.95;;;;;;;15.96;71.02;100379.81;7394282;19;20019;-68
2022/09/08 06:42:57;;;;;;;13.35;8.05;;;;;;;15.99;70.96;100370.03;7395097;19;20022;-69
2022/09/08 06:45:28;;;;;;;11.40;7.82;;;;;;;16.02;71.00;100367.22;7395141;19;20014;-68
2022/09/08 06:48:27;;;;;;;17.85;8.30;;;;;;;16.05;71.15;100364.41;7394970;19;20489;-68
2022/09/08 06:51:08;;;;;;;11.77;9.70;;;;;;;16.08;71.23;100357.16;7393320;19;20015;-68
2022/09/08 06:53:40;;;;;;;13.43;9.95;;;;;;;16.16;71.48;100346.19;7394948;19;20512;-68
2022/09/08 06:56:17;;;;;;;12.75;9.40;;;;;;;16.21;71.18;100332.72;7393233;19;20024;-68
2022/09/08 06:58:46;;;;;;;14.13;10.35;;;;;;;16.26;71.32;100341.28;7395803;19;20018;-68
2022/09/08 07:01:20;;;;;;;11.93;8.05;;;;;;;16.31;71.26;100328.66;7393803;19;20383;-68
2022/09/08 07:04:11;;;;;;;9.25;7.93;;;;;;;16.33;71.25;100321.50;7395441;19;20022;-68
2022/09/08 07:06:52;;;;;;;10.20;7.43;;;;;;;16.37;71.05;100323.03;7394912;19;20022;-68
2022/09/08 07:09:28;;;;;;;13.57;7.88;;;;;;;16.42;71.21;100314.88;7394211;19;20031;-67
2022/09/08 07:12:08;;;;;;;12.88;8.00;;;;;;;16.48;71.27;100306.59;7391216;19;20017;-68
2022/09/08 07:14:54;;;;;;;9.30;7.57;;;;;;;16.53;71.16;100303.69;7394361;19;20363;-70
2022/09/08 07:17:29;;;;;;;11.85;7.78;;;;;;;16.59;71.11;100313.94;7393917;19;20021;-68
2022/09/08 07:20:02;;;;;;;11.90;8.25;;;;;;;16.66;71.00;100322.44;7394519;19;20019;-68
2022/09/08 07:22:39;;;;;;;12.23;8.20;;;;;;;16.74;70.61;100310.50;7392334;19;20018;-68
2022/09/08 07:25:20;;;;;;;12.02;7.93;;;;;;;16.81;70.42;100297.75;7395550;19;20471;-68
2022/09/08 07:27:55;;;;;;;14.85;9.63;;;;;;;16.85;70.48;100309.06;7394526;19;20023;-69
2022/09/08 07:30:23;;;;;;;26.05;17.83;;;;;;;16.88;70.51;100311.50;7393817;19;20011;-70
2022/09/08 07:32:56;;;;;;;9.85;8.30;;;;;;;16.90;70.30;100307.84;7392193;19;20019;-69
2022/09/08 07:35:44;;;;;;;11.85;8.35;;;;;;;16.97;70.07;100302.25;7393843;19;20347;-69
2022/09/08 07:38:18;;;;;;;9.15;8.05;;;;;;;16.99;69.84;100289.78;7391894;19;20046;-69
2022/09/08 07:40:51;;;;;;;13.27;9.32;;;;;;;17.02;70.19;100295.75;7392594;19;20021;-69
2022/09/08 07:43:20;;;;;;;11.52;8.32;;;;;;;17.04;70.25;100295.66;7393584;19;20015;-69
2022/09/08 07:45:51;;;;;;;11.25;7.53;;;;;;;17.09;70.73;100296.25;7393133;19;20035;-69
2022/09/08 07:48:33;;;;;;;11.73;9.13;;;;;;;17.13;70.60;100299.59;7393961;19;20011;-69
2022/09/08 07:51:11;;;;;;;10.70;7.82;;;;;;;17.13;70.40;100304.91;7393609;19;20018;-69
2022/09/08 07:54:12;;;;;;;11.23;8.65;;;;;;;17.14;70.87;100314.56;7393325;19;20524;-69
2022/09/08 07:56:45;;;;;;;16.63;9.75;;;;;;;17.15;70.73;100310.94;7393556;19;20031;-69
2022/09/08 07:59:29;;;;;;;13.90;8.02;;;;;;;17.18;71.13;100297.53;7391517;19;20469;-69
2022/09/08 08:02:02;;;;;;;;;;;;;;;17.18;71.08;100289.59;7392651;19;20031;-70
2022/09/08 08:04:53;;;;;;;10.95;8.20;;;;;;;17.17;70.91;100298.47;7393420;19;19998;-69
2022/09/08 08:07:31;;;;;;;12.88;7.68;;;;;;;17.14;71.31;100296.84;7393078;19;20019;-69
2022/09/08 08:10:07;;;;;;;13.10;8.80;;;;;;;17.14;71.75;100306.63;7393696;19;20014;-69
2022/09/08 08:12:43;;;;;;;12.70;9.48;;;;;;;17.14;71.84;100309.25;7391605;19;20023;-69
2022/09/08 08:15:20;;;;;;;14.02;9.35;;;;;;;17.14;71.85;100293.34;7392915;19;20018;-69
2022/09/08 08:17:59;;;;;;;10.98;8.50;;;;;;;17.13;72.11;100299.59;7391514;19;20030;-68
2022/09/08 08:20:40;;;;;;;15.25;8.80;;;;;;;17.08;72.10;100298.03;7392622;19;20036;-69
2022/09/08 08:23:47;;;;;;;15.52;10.10;;;;;;;17.03;72.99;100297.44;7392804;19;20026;-69
2022/09/08 08:26:27;;;;;;;11.05;8.98;;;;;;;16.94;73.36;100295.31;7397781;19;20485;-70
2022/09/08 08:29:14;;;;;;;16.83;9.65;;;;;;;16.86;73.90;100292.22;7400260;19;20014;-70
2022/09/08 08:31:48;;;;;;;16.30;10.50;;;;;;;16.78;74.45;100280.25;7398520;19;20014;-70
2022/09/08 08:34:24;;;;;;;17.98;12.10;;;;;;;16.71;74.44;100278.88;7400441;19;20022;-70
2022/09/08 08:36:57;;;;;;;12.90;10.57;;;;;;;16.68;75.05;100279.03;7399912;19;20051;-70
2022/09/08 08:39:29;;;;;;;12.93;10.90;;;;;;;16.64;75.46;100272.19;7399466;19;20019;-69
2022/09/08 08:42:29;;;;;;;12.90;9.48;;;;;;;16.57;75.74;100266.38;7397796;19;20019;-68
2022/09/08 08:45:22;;;;;;;13.77;9.95;;;;;;;16.48;75.86;100258.94;7399321;19;20361;-69
2022/09/08 08:48:15;;;;;;;13.77;10.32;;;;;;;16.43;76.00;100259.19;7399472;19;20010;-69
2022/09/08 08:51:07;;;;;;;15.80;9.23;;;;;;;16.39;76.74;100257.66;7399320;19;20015;-68
2022/09/08 08:53:52;;;;;;;11.07;9.68;;;;;;;16.40;76.87;100267.31;7396323;19;20018;-69
2022/09/08 08:56:31;;;;;;;13.43;9.15;;;;;;;16.40;76.90;100277.03;7398752;19;20014;-69
2022/09/08 08:59:29;;;;;;;11.63;9.55;;;;;;;16.41;77.04;100281.38;7399648;19;20024;-69
2022/09/08 09:02:17;;;;;;;11.70;9.63;;;;;;;16.42;76.88;100286.59;7396480;19;20023;-69
2022/09/08 09:05:04;;;;;;;10.18;8.52;;;;;;;16.43;77.18;100290.94;7399049;19;20026;-69
2022/09/08 09:07:45;;;;;;;11.45;8.77;;;;;;;16.47;77.25;100304.88;7400507;19;20014;-68
2022/09/08 09:10:39;;;;;;;14.65;10.63;;;;;;;16.48;77.37;100309.25;7398930;19;20023;-68
2022/09/08 09:13:54;;;;;;;11.93;9.70;;;;;;;16.47;77.76;100307.53;7395474;19;20027;-68
2022/09/08 09:17:00;;;;;;;12.65;10.15;;;;;;;16.44;77.61;100313.84;7398686;19;20074;-68
2022/09/08 09:19:51;;;;;;;11.98;10.27;;;;;;;16.39;78.05;100315.88;7394302;19;20478;-69
2022/09/08 09:22:31;;;;;;;14.63;10.93;;;;;;;16.32;78.73;100340.13;7394049;19;20014;-69
2022/09/08 09:25:14;;;;;;;14.80;12.05;;;;;;;16.20;79.19;100353.06;7398658;19;20082;-69
2022/09/08 09:27:45;;;;;;;16.95;11.60;;;;;;;16.11;79.27;100356.16;7397454;19;20019;-69
2022/09/08 09:30:41;;;;;;;17.83;13.18;;;;;;;16.00;80.03;100367.31;7397956;19;20024;-69
2022/09/08 09:33:25;;;;;;;17.40;13.90;;;;;;;15.90;80.61;100361.59;7398177;19;20021;-69
2022/09/08 09:36:26;;;;;;;18.35;14.55;;;;;;;15.76;81.95;100359.63;7395289;19;20022;-69
2022/09/08 09:39:19;;;;;;;19.90;16.30;;;;;;;15.60;82.87;100348.09;7396914;19;20082;-69
2022/09/08 09:42:08;;;;;;;21.88;17.35;;;;;;;15.47;83.20;100348.69;7395651;19;20357;-69
2022/09/08 09:45:02;;;;;;;17.90;16.00;;;;;;;15.37;84.49;100351.84;7397975;19;20402;-69
2022/09/08 09:47:55;;;;;;;22.77;17.33;;;;;;;15.28;85.50;100376.94;7397476;19;20018;-69
2022/09/08 09:50:50;;;;;;;22.65;18.95;;;;;;;15.19;87.98;100332.44;7397146;19;20083;-68
2022/09/08 09:53:30;;;;;;;29.23;24.45;;;;;;;15.04;87.96;100340.16;7395048;19;20081;-69
2022/09/08 09:56:32;;;;;;;37.22;25.80;;;;;;;14.92;90.04;100314.31;7397611;19;20023;-69
2022/09/08 09:59:43;;;;;;;35.92;26.55;;;;;;;14.79;92.31;100287.63;7397266;19;20010;-69
2022/09/08 10:02:41;;;;;;;42.28;28.92;;;;;;;14.65;91.64;100297.03;7395293;19;20027;-69
2022/09/08 10:05:29;;;;;;;53.58;35.40;;;;;;;14.61;91.23;100311.28;7396553;19;20501;-69
2022/09/08 10:08:32;;;;;;;65.07;41.92;;;;;;;14.60;91.83;100306.06;7395897;19;20036;-68
2022/09/08 10:11:21;;;;;;;69.90;45.53;;;;;;;14.61;91.58;100289.31;7394972;19;20018;-70
2022/09/08 10:14:12;;;;;;;75.18;46.65;;;;;;;14.62;93.00;100270.75;7395826;19;20027;-69
2022/09/08 10:17:14;;;;;;;91.90;53.10;;;;;;;14.69;92.54;100270.50;7397379;19;20028;-69
2022/09/08 10:20:24;;;;;;;119.55;69.95;;;;;;;14.76;92.61;100277.19;7396876;19;20086;-69
2022/09/08 10:23:25;;;;;;;101.88;60.97;;;;;;;14.85;92.53;100278.53;7394392;19;20010;-70
2022/09/08 10:26:27;;;;;;;98.28;57.80;;;;;;;14.93;93.18;100255.28;7393806;19;20364;-69
2022/09/08 10:29:36;;;;;;;107.28;63.40;;;;;;;14.99;93.62;100263.75;7395387;19;20017;-69
2022/09/08 10:32:41;;;;;;;109.30;63.45;;;;;;;15.05;93.75;100275.84;7393319;19;20038;-69
2022/09/08 10:35:39;;;;;;;109.22;62.80;;;;;;;15.13;94.08;100291.31;7395634;19;20018;-69
2022/09/08 10:38:46;;;;;;;94.50;55.75;;;;;;;15.19;94.40;100290.16;7395162;19;20014;-69
2022/09/08 10:42:03;;;;;;;92.63;55.38;;;;;;;15.24;94.02;100282.84;7394873;19;20373;-70
2022/09/08 10:44:49;;;;;;;99.32;57.95;;;;;;;15.25;94.64;100263.44;7393509;19;20358;-69
2022/09/08 10:47:40;;;;;;;94.25;55.60;;;;;;;15.29;95.20;100257.94;7393454;19;20024;-69
2022/09/08 10:50:24;;;;;;;91.97;54.67;;;;;;;15.30;95.31;100250.84;7393574;19;20502;-68
2022/09/08 10:53:14;;;;;;;97.50;56.45;;;;;;;15.34;95.55;100236.53;7394517;19;20037;-69
2022/09/08 10:56:00;;;;;;;89.03;55.22;;;;;;;15.37;95.73;100236.41;7393906;19;20027;-68
2022/09/08 10:59:07;;;;;;;95.40;55.67;;;;;;;15.40;95.78;100244.16;7395737;19;20006;-68
2022/09/08 11:01:57;;;;;;;98.55;57.78;;;;;;;15.45;96.19;100255.38;7394025;19;20390;-68
2022/09/08 11:05:19;;;;;;;96.88;58.97;;;;;;;15.53;96.12;100260.28;7394505;19;20012;-68
2022/09/08 11:08:13;;;;;;;90.95;53.38;;;;;;;15.58;96.26;100255.63;7392884;19;20014;-69
2022/09/08 11:11:05;;;;;;;98.73;56.40;;;;;;;15.62;96.62;100257.19;7393795;19;20042;-69
2022/09/08 11:13:37;;;;;;;99.53;58.22;;;;;;;15.64;96.51;100243.88;7393653;19;20027;-69
2022/09/08 11:16:30;;;;;;;87.43;53.35;;;;;;;15.70;96.80;100243.56;7393757;19;20039;-68
2022/09/08 11:19:25;;;;;;;89.03;55.53;;;;;;;15.75;96.80;100254.75;7394747;19;20018;-68
2022/09/08 11:22:16;;;;;;;106.35;62.42;;;;;;;15.82;97.23;100249.19;7391603;19;20011;-69
2022/09/08 11:24:56;;;;;;;107.93;68.75;;;;;;;15.88;97.05;100248.88;7391783;19;20481;-69
2022/09/08 11:27:35;;;;;;;80.55;54.58;;;;;;;15.91;97.42;100235.47;7393664;19;20022;-68
2022/09/08 11:30:18;;;;;;;75.75;49.70;;;;;;;15.92;97.53;100227.47;7392667;19;20035;-69
2022/09/08 11:33:02;;;;;;;87.13;52.83;;;;;;;15.93;97.74;100236.25;7392979;19;20379;-69
2022/09/08 11:35:47;;;;;;;82.85;50.88;;;;;;;15.95;97.58;100226.47;7391183;19;20038;-69
2022/09/08 11:38:21;;;;;;;;;;;;;;;15.96;98.49;100229.03;7393264;19;20494;-68
2022/09/08 11:41:22;;;;;;;83.38;52.70;;;;;;;16.00;97.73;100231.50;7390848;19;19919;-69
2022/09/08 11:44:24;;;;;;;82.38;55.42;;;;;;;16.07;97.35;100228.44;7393076;19;20022;-69
2022/09/08 11:47:17;;;;;;;86.13;57.22;;;;;;;16.15;97.81;100232.47;7392708;19;20014;-69
2022/09/08 11:50:20;;;;;;;82.90;56.17;;;;;;;16.22;97.75;100229.41;7396254;19;20011;-69
2022/09/08 11:53:17;;;;;;;83.38;55.65;;;;;;;16.30;98.05;100239.59;7392296;19;20027;-70
2022/09/08 11:56:04;;;;;;;80.00;56.20;;;;;;;16.38;97.87;100234.75;7393192;19;20018;-69
2022/09/08 11:58:40;;;;;;;77.75;54.60;;;;;;;16.48;97.96;100234.25;7395682;19;20091;-69
2022/09/08 12:01:30;;;;;;;73.93;50.35;;;;;;;16.54;97.88;100236.56;7398893;19;20019;-69
2022/09/08 12:04:10;;;;;;;67.45;49.97;;;;;;;16.57;98.05;100231.09;7400272;19;20011;-68
2022/09/08 12:07:06;;;;;;;64.47;48.08;;;;;;;16.64;98.30;100227.16;7398284;19;20026;-69
2022/09/08 12:10:12;;;;;;;60.53;45.72;;;;;;;16.69;98.02;100221.63;7400289;19;20014;-68